createdAt,value
2019-01-04T00:02:36.105Z,15.50
2019-01-04T00:05:16.395Z,15.50
2019-01-04T00:07:56.808Z,15.50
2019-01-04T00:10:37.159Z,15.60
2019-01-04T00:13:17.402Z,15.50
2019-01-04T00:15:57.628Z,15.60
2019-01-04T00:18:38.256Z,15.50
2019-01-04T00:21:18.108Z,15.50
2019-01-04T00:23:58.180Z,15.60
2019-01-04T00:26:38.685Z,15.50
2019-01-04T00:29:18.537Z,15.60
2019-01-04T00:31:58.771Z,15.50
2019-01-04T00:34:39.064Z,15.50
2019-01-04T00:37:19.267Z,15.60
2019-01-04T00:39:59.793Z,15.50
2019-01-04T00:42:39.954Z,15.60
2019-01-04T00:45:21.306Z,15.50
2019-01-04T00:48:01.857Z,15.50
2019-01-04T00:50:42.154Z,15.50
2019-01-04T00:53:22.353Z,15.60
2019-01-04T00:56:02.833Z,15.50
2019-01-04T00:58:46.598Z,15.50
2019-01-04T01:01:26.847Z,15.50
2019-01-04T01:04:07.192Z,15.50
2019-01-04T01:06:47.524Z,15.50
2019-01-04T01:09:28.050Z,15.50
2019-01-04T01:12:08.559Z,15.50
2019-01-04T01:14:48.998Z,15.50
2019-01-04T01:17:29.314Z,15.50
2019-01-04T01:20:09.439Z,15.50
2019-01-04T01:22:49.397Z,15.60
2019-01-04T01:25:29.732Z,15.50
2019-01-04T01:28:09.800Z,15.50
2019-01-04T01:30:50.046Z,15.50
2019-01-04T01:33:30.087Z,15.50
2019-01-04T01:36:10.429Z,15.50
2019-01-04T01:38:50.644Z,15.50
2019-01-04T01:41:30.668Z,15.50
2019-01-04T01:44:10.654Z,15.50
2019-01-04T01:46:51.066Z,15.50
2019-01-04T01:49:31.227Z,15.50
2019-01-04T01:52:11.652Z,15.50
2019-01-04T01:54:51.733Z,15.50
2019-01-04T01:57:32.173Z,15.50
2019-01-04T02:00:12.531Z,15.50
2019-01-04T02:02:52.849Z,15.60
2019-01-04T02:05:33.057Z,15.50
2019-01-04T02:08:13.451Z,15.50
2019-01-04T02:10:54.754Z,15.50
2019-01-04T02:13:35.158Z,15.50
2019-01-04T02:16:15.433Z,15.50
2019-01-04T02:18:55.826Z,15.50
2019-01-04T02:21:36.084Z,15.50
2019-01-04T02:24:16.534Z,15.50
2019-01-04T02:26:56.468Z,15.50
2019-01-04T02:29:36.880Z,15.50
2019-01-04T02:32:17.104Z,15.50
2019-01-04T02:34:57.650Z,15.40
2019-01-04T02:37:37.864Z,15.50
2019-01-04T02:40:18.024Z,15.50
2019-01-04T02:42:58.393Z,15.50
2019-01-04T02:45:38.895Z,15.50
2019-01-04T02:48:19.000Z,15.50
2019-01-04T02:50:59.438Z,15.50
2019-01-04T02:53:40.067Z,15.50
2019-01-04T02:56:20.263Z,15.50
2019-01-04T02:59:00.553Z,15.50
2019-01-04T03:01:40.836Z,15.50
2019-01-04T03:04:20.983Z,15.50
2019-01-04T03:07:01.231Z,15.50
2019-01-04T03:09:41.404Z,15.50
2019-01-04T03:12:21.434Z,15.50
2019-01-04T03:15:02.161Z,15.50
2019-01-04T03:17:42.185Z,15.50
2019-01-04T03:20:22.405Z,15.40
2019-01-04T03:23:02.657Z,15.50
2019-01-04T03:25:42.795Z,15.40
2019-01-04T03:28:23.125Z,15.40
2019-01-04T03:31:03.195Z,15.50
2019-01-04T03:33:43.472Z,15.50
2019-01-04T03:36:23.907Z,15.40
2019-01-04T03:39:04.118Z,15.50
2019-01-04T03:41:44.523Z,15.50
2019-01-04T03:44:24.404Z,15.50
2019-01-04T03:47:04.624Z,15.50
2019-01-04T03:49:45.044Z,15.50
2019-01-04T03:52:25.046Z,15.50
2019-01-04T03:55:05.237Z,15.50
2019-01-04T03:57:45.294Z,15.50
2019-01-04T04:00:26.563Z,15.50
2019-01-04T04:03:07.106Z,15.50
2019-01-04T04:05:47.545Z,15.60
2019-01-04T04:08:27.607Z,15.60
2019-01-04T04:11:07.753Z,15.60
2019-01-04T04:13:48.058Z,15.70
2019-01-04T04:16:28.049Z,15.70
2019-01-04T04:19:08.391Z,15.80
2019-01-04T04:21:48.515Z,15.80
2019-01-04T04:24:28.881Z,15.80
2019-01-04T04:27:09.082Z,15.90
2019-01-04T04:29:49.382Z,15.90
2019-01-04T04:32:29.428Z,16.00
2019-01-04T04:35:09.803Z,16.00
2019-01-04T04:37:53.561Z,16.00
2019-01-04T04:40:33.333Z,16.10
2019-01-04T04:43:13.853Z,16.10
2019-01-04T04:45:53.974Z,16.10
2019-01-04T04:48:34.328Z,16.10
2019-01-04T04:51:14.368Z,16.20
2019-01-04T04:53:54.324Z,16.20
2019-01-04T04:56:34.370Z,16.20
2019-01-04T04:59:14.725Z,16.30
2019-01-04T05:01:54.745Z,16.30
2019-01-04T05:04:34.969Z,16.30
2019-01-04T05:07:15.295Z,16.30
2019-01-04T05:09:55.418Z,16.30
2019-01-04T05:12:35.928Z,16.40
2019-01-04T05:15:16.225Z,16.40
2019-01-04T05:17:56.407Z,16.40
2019-01-04T05:20:36.635Z,16.40
2019-01-04T05:23:16.769Z,16.50
2019-01-04T05:25:56.864Z,16.50
2019-01-04T05:28:37.096Z,16.50
2019-01-04T05:31:17.570Z,16.50
2019-01-04T05:33:57.799Z,16.50
2019-01-04T05:36:38.254Z,16.50
2019-01-04T05:39:18.356Z,16.60
2019-01-04T05:41:58.745Z,16.60
2019-01-04T05:44:38.795Z,16.60
2019-01-04T05:47:18.680Z,16.60
2019-01-04T05:49:58.874Z,16.60
2019-01-04T05:52:39.165Z,16.70
2019-01-04T05:55:19.498Z,16.70
2019-01-04T05:57:59.564Z,16.70
2019-01-04T06:00:39.588Z,16.70
2019-01-04T06:03:20.073Z,16.70
2019-01-04T06:06:00.255Z,16.70
2019-01-04T06:08:40.532Z,16.80
2019-01-04T06:11:20.634Z,16.80
2019-01-04T06:14:00.922Z,16.70
2019-01-04T06:16:41.056Z,16.80
2019-01-04T06:19:21.230Z,16.80
2019-01-04T06:22:01.604Z,16.80
2019-01-04T06:24:41.899Z,16.90
2019-01-04T06:27:21.951Z,16.90
2019-01-04T06:30:02.192Z,16.90
2019-01-04T06:32:42.485Z,16.90
2019-01-04T06:35:22.827Z,16.90
2019-01-04T06:38:02.866Z,16.90
2019-01-04T06:40:43.009Z,16.90
2019-01-04T06:43:23.316Z,16.90
2019-01-04T06:46:03.536Z,16.90
2019-01-04T06:48:43.981Z,17.00
2019-01-04T06:51:27.763Z,16.90
2019-01-04T06:54:06.228Z,17.00
2019-01-04T06:56:46.512Z,17.00
2019-01-04T06:59:26.794Z,17.00
2019-01-04T07:02:07.157Z,17.00
2019-01-04T07:04:47.254Z,17.00
2019-01-04T07:07:27.584Z,17.00
2019-01-04T07:10:07.889Z,17.10
2019-01-04T07:12:48.212Z,17.10
2019-01-04T07:15:28.085Z,17.00
2019-01-04T07:18:08.331Z,17.10
2019-01-04T07:20:48.550Z,17.10
2019-01-04T07:23:56.871Z,17.10
2019-01-04T07:26:43.917Z,17.10
2019-01-04T07:29:24.016Z,17.10
2019-01-04T07:32:04.227Z,17.20
2019-01-04T07:34:44.437Z,17.20
2019-01-04T07:37:24.497Z,17.20
2019-01-04T07:40:05.706Z,17.20
2019-01-04T07:42:46.229Z,17.20
2019-01-04T07:45:26.432Z,17.20
2019-01-04T07:48:06.605Z,17.20
2019-01-04T07:50:46.701Z,17.20
2019-01-04T07:53:26.773Z,17.20
2019-01-04T07:56:07.116Z,17.20
2019-01-04T07:58:47.268Z,17.30
2019-01-04T08:01:27.316Z,17.30
2019-01-04T08:04:07.437Z,17.30
2019-01-04T08:06:47.671Z,17.30
2019-01-04T08:09:27.849Z,17.30
2019-01-04T08:12:08.097Z,17.30
2019-01-04T08:14:48.776Z,17.30
2019-01-04T08:17:28.642Z,17.30
2019-01-04T08:20:12.379Z,17.30
2019-01-04T08:22:52.126Z,17.30
2019-01-04T08:25:32.609Z,17.40
2019-01-04T08:28:12.706Z,17.40
2019-01-04T08:30:52.797Z,17.40
2019-01-04T08:33:33.114Z,17.40
2019-01-04T08:36:13.256Z,17.40
2019-01-04T08:38:53.606Z,17.40
2019-01-04T08:41:33.889Z,17.40
2019-01-04T08:44:14.221Z,17.40
2019-01-04T08:46:54.455Z,17.40
2019-01-04T08:49:34.637Z,17.40
2019-01-04T08:52:14.877Z,17.40
2019-01-04T08:54:55.093Z,17.40
2019-01-04T08:57:35.528Z,17.50
2019-01-04T09:00:15.657Z,17.50
2019-01-04T09:02:55.491Z,17.50
2019-01-04T09:05:35.902Z,17.50
2019-01-04T09:08:16.201Z,17.50
2019-01-04T09:10:56.390Z,17.50
2019-01-04T09:13:36.566Z,17.50
2019-01-04T09:16:16.634Z,17.50
2019-01-04T09:18:56.960Z,17.50
2019-01-04T09:21:37.688Z,17.50
2019-01-04T09:24:17.792Z,17.50
2019-01-04T09:26:58.125Z,17.60
2019-01-04T09:29:38.440Z,17.60
2019-01-04T09:32:18.922Z,17.60
2019-01-04T09:34:59.550Z,17.60
2019-01-04T09:37:39.783Z,17.60
2019-01-04T09:40:20.121Z,17.60
2019-01-04T09:43:00.406Z,17.60
2019-01-04T09:45:40.652Z,17.60
2019-01-04T09:48:20.733Z,17.60
2019-01-04T09:51:01.037Z,17.60
2019-01-04T09:53:40.938Z,17.70
2019-01-04T09:56:21.155Z,17.70
2019-01-04T09:59:01.435Z,17.70
2019-01-04T10:01:41.440Z,17.60
2019-01-04T10:04:21.948Z,17.70
2019-01-04T10:07:01.879Z,17.70
2019-01-04T10:09:43.277Z,17.70
2019-01-04T10:12:23.597Z,17.70
2019-01-04T10:15:03.933Z,17.70
2019-01-04T10:17:44.491Z,17.70
2019-01-04T10:20:24.345Z,17.70
2019-01-04T10:23:04.724Z,17.70
2019-01-04T10:25:44.853Z,17.70
2019-01-04T10:28:25.020Z,17.70
2019-01-04T10:31:05.382Z,17.80
2019-01-04T10:33:45.589Z,17.80
2019-01-04T10:36:26.001Z,17.70
2019-01-04T10:39:06.209Z,17.80
2019-01-04T10:41:46.447Z,17.70
2019-01-04T10:44:26.553Z,17.80
2019-01-04T10:47:06.865Z,17.80
2019-01-04T10:49:47.129Z,17.80
2019-01-04T10:52:26.960Z,17.80
2019-01-04T10:55:08.466Z,17.80
2019-01-04T10:57:48.435Z,17.80
2019-01-04T11:00:28.697Z,17.80
2019-01-04T11:03:08.821Z,17.80
2019-01-04T11:05:49.168Z,17.90
2019-01-04T11:08:29.586Z,17.90
2019-01-04T11:11:11.003Z,17.80
2019-01-04T11:13:51.340Z,17.90
2019-01-04T11:16:31.329Z,17.80
2019-01-04T11:19:11.485Z,17.90
2019-01-04T11:21:51.795Z,17.90
2019-01-04T11:24:32.161Z,17.80
2019-01-04T11:27:12.585Z,17.80
2019-01-04T11:29:52.684Z,17.80
2019-01-04T11:32:32.793Z,17.80
2019-01-04T11:35:12.845Z,17.80
2019-01-04T11:37:53.070Z,17.90
2019-01-04T11:40:33.284Z,17.90
2019-01-04T11:43:13.265Z,17.90
2019-01-04T11:45:54.418Z,17.90
2019-01-04T11:48:34.405Z,17.90
2019-01-04T11:51:14.571Z,17.90
2019-01-04T11:53:54.897Z,17.90
2019-01-04T11:56:34.948Z,17.90
2019-01-04T11:59:15.298Z,17.90
2019-01-04T12:01:59.311Z,17.90
2019-01-04T12:04:39.432Z,17.90
2019-01-04T12:07:20.021Z,18.00
2019-01-04T12:10:00.333Z,18.00
2019-01-04T12:12:40.577Z,18.00
2019-01-04T12:15:20.760Z,18.00
2019-01-04T12:18:00.744Z,18.00
2019-01-04T12:20:45.406Z,18.00
2019-01-04T12:23:22.995Z,18.00
2019-01-04T12:26:03.049Z,18.00
2019-01-04T12:28:43.267Z,18.00
2019-01-04T12:31:23.555Z,18.10
2019-01-04T12:34:04.090Z,18.00
2019-01-04T12:36:44.584Z,18.00
2019-01-04T12:39:24.677Z,18.10
2019-01-04T12:42:05.008Z,18.10
2019-01-04T12:44:45.293Z,18.10
2019-01-04T12:47:26.422Z,18.00
2019-01-04T12:50:06.754Z,18.10
2019-01-04T12:52:47.034Z,18.10
2019-01-04T12:55:27.221Z,18.10
2019-01-04T12:58:07.841Z,18.10
2019-01-04T13:00:48.095Z,18.10
2019-01-04T13:03:28.300Z,18.10
2019-01-04T13:06:08.289Z,18.10
2019-01-04T13:08:48.569Z,18.10
2019-01-04T13:11:28.859Z,18.20
2019-01-04T13:14:09.167Z,18.10
2019-01-04T13:16:49.189Z,18.10
2019-01-04T13:19:29.524Z,18.20
2019-01-04T13:22:10.041Z,18.20
2019-01-04T13:24:50.048Z,18.20
2019-01-04T13:27:30.106Z,18.20
2019-01-04T13:30:09.965Z,18.20
2019-01-04T13:32:50.192Z,18.20
2019-01-04T13:35:30.516Z,18.20
2019-01-04T13:38:10.826Z,18.20
2019-01-04T13:40:51.177Z,18.20
2019-01-04T13:43:31.211Z,18.20
2019-01-04T13:46:11.611Z,18.20
2019-01-04T13:48:52.057Z,18.20
2019-01-04T13:51:32.450Z,18.20
2019-01-04T13:54:12.581Z,18.30
2019-01-04T13:56:53.017Z,18.30
2019-01-04T13:59:32.913Z,18.30
2019-01-04T14:02:13.312Z,18.30
2019-01-04T14:04:53.764Z,18.30
2019-01-04T14:07:34.062Z,18.30
2019-01-04T14:10:14.417Z,18.30
2019-01-04T14:12:54.749Z,18.40
2019-01-04T14:15:35.075Z,18.30
2019-01-04T14:18:15.174Z,18.40
2019-01-04T14:20:55.356Z,18.30
2019-01-04T14:23:36.658Z,18.30
2019-01-04T14:26:17.074Z,18.40
2019-01-04T14:28:57.275Z,18.40
2019-01-04T14:31:37.705Z,18.40
2019-01-04T14:34:17.669Z,18.40
2019-01-04T14:36:57.832Z,18.40
2019-01-04T14:39:38.061Z,18.40
2019-01-04T14:42:21.475Z,18.40
2019-01-04T14:45:02.188Z,18.40
2019-01-04T14:47:42.665Z,18.40
2019-01-04T14:50:23.052Z,18.40
2019-01-04T14:53:03.338Z,18.40
2019-01-04T14:55:43.390Z,18.40
2019-01-04T14:58:23.573Z,18.40
2019-01-04T15:01:03.671Z,18.40
2019-01-04T15:03:43.797Z,18.40
2019-01-04T15:06:23.820Z,18.40
2019-01-04T15:09:04.401Z,18.40
2019-01-04T15:11:44.893Z,18.40
2019-01-04T15:14:28.652Z,18.40
2019-01-04T15:17:08.345Z,18.50
2019-01-04T15:19:48.589Z,18.40
2019-01-04T15:22:28.696Z,18.50
2019-01-04T15:25:09.175Z,18.40
2019-01-04T15:27:49.411Z,18.40
2019-01-04T15:30:29.866Z,18.50
2019-01-04T15:33:09.833Z,18.50
2019-01-04T15:35:50.275Z,18.50
2019-01-04T15:38:36.042Z,18.50
2019-01-04T15:41:12.804Z,18.50
2019-01-04T15:43:53.000Z,18.60
2019-01-04T15:46:33.374Z,18.50
2019-01-04T15:49:13.585Z,18.60
2019-01-04T15:51:53.958Z,18.50
2019-01-04T15:54:34.186Z,18.50
2019-01-04T15:57:14.349Z,18.50
2019-01-04T15:59:54.733Z,18.60
2019-01-04T16:02:35.112Z,18.60
2019-01-04T16:05:15.261Z,18.60
2019-01-04T16:07:55.485Z,18.50
2019-01-04T16:10:35.480Z,18.60
2019-01-04T16:13:22.557Z,18.60
2019-01-04T16:16:09.594Z,18.60
2019-01-04T16:18:49.717Z,18.60
2019-01-04T16:21:29.760Z,18.60
2019-01-04T16:24:10.181Z,18.60
2019-01-04T16:26:50.476Z,18.60
2019-01-04T16:29:30.737Z,18.60
2019-01-04T16:32:11.061Z,18.60
2019-01-04T16:34:51.275Z,18.60
2019-01-04T16:37:31.579Z,18.60
2019-01-04T16:40:12.063Z,18.60
2019-01-04T16:42:52.257Z,18.60
2019-01-04T16:45:32.841Z,18.70
2019-01-04T16:48:13.051Z,18.70
2019-01-04T16:50:53.097Z,18.70
2019-01-04T16:53:33.282Z,18.70
2019-01-04T16:56:13.481Z,18.70
2019-01-04T16:58:53.530Z,18.70
2019-01-04T17:01:34.012Z,18.70
2019-01-04T17:04:14.318Z,18.70
2019-01-04T17:06:54.741Z,18.70
2019-01-04T17:09:34.899Z,18.70
2019-01-04T17:12:15.169Z,18.70
2019-01-04T17:14:55.449Z,18.70
2019-01-04T17:17:35.648Z,18.70
2019-01-04T17:20:16.124Z,18.70
2019-01-04T17:22:56.320Z,18.70
2019-01-04T17:25:36.575Z,18.70
2019-01-04T17:28:17.263Z,18.70
2019-01-04T17:30:57.932Z,18.80
2019-01-04T17:33:38.733Z,18.80
2019-01-04T17:36:18.582Z,18.80
2019-01-04T17:38:59.341Z,18.90
2019-01-04T17:41:42.396Z,18.90
2019-01-04T17:44:22.439Z,18.90
2019-01-04T17:47:04.112Z,18.90
2019-01-04T17:49:45.968Z,18.90
2019-01-04T17:52:26.654Z,18.90
2019-01-04T17:55:08.228Z,18.90
2019-01-04T17:57:48.192Z,18.90
2019-01-04T18:00:40.699Z,19.00
2019-01-04T18:03:20.544Z,18.90
2019-01-04T18:06:00.666Z,19.00
2019-01-04T18:08:41.170Z,19.00
2019-01-04T18:11:21.633Z,19.00
2019-01-04T18:14:02.170Z,19.10
2019-01-04T18:16:43.330Z,19.10
2019-01-04T18:19:23.490Z,19.10
2019-01-04T18:22:03.976Z,19.10
2019-01-04T18:24:46.778Z,19.20
2019-01-04T18:27:27.055Z,19.30
2019-01-04T18:30:07.413Z,19.50
2019-01-04T18:32:48.401Z,19.50
2019-01-04T18:35:28.587Z,19.70
2019-01-04T18:38:08.672Z,19.70
2019-01-04T18:40:48.894Z,19.80
2019-01-04T18:43:29.165Z,19.80
2019-01-04T18:46:09.431Z,19.80
2019-01-04T18:48:49.898Z,19.80
2019-01-04T18:51:29.971Z,19.80
2019-01-04T18:54:10.193Z,19.80
2019-01-04T18:56:50.376Z,19.80
2019-01-04T18:59:30.497Z,19.80
2019-01-04T19:02:10.676Z,19.70
2019-01-04T19:04:51.026Z,19.80
2019-01-04T19:07:31.105Z,19.70
2019-01-04T19:10:11.409Z,19.70
2019-01-04T19:12:51.724Z,19.70
2019-01-04T19:15:32.118Z,19.70
2019-01-04T19:18:12.670Z,19.80
2019-01-04T19:20:53.736Z,19.80
2019-01-04T19:23:39.439Z,19.80
2019-01-04T19:26:16.160Z,19.80
2019-01-04T19:28:56.393Z,19.80
2019-01-04T19:31:36.652Z,19.80
2019-01-04T19:34:16.785Z,19.80
2019-01-04T19:36:56.902Z,19.80
2019-01-04T19:39:37.194Z,19.80
2019-01-04T19:42:17.458Z,19.90
2019-01-04T19:44:57.493Z,20.00
2019-01-04T19:47:38.239Z,20.10
2019-01-04T19:50:18.013Z,20.20
2019-01-04T19:52:58.282Z,20.30
2019-01-04T19:55:39.776Z,20.30
2019-01-04T19:58:20.215Z,20.40
2019-01-04T20:01:00.036Z,20.50
2019-01-04T20:03:40.250Z,20.60
2019-01-04T20:06:40.211Z,20.50
2019-01-04T20:09:39.593Z,20.70
2019-01-04T20:12:41.924Z,20.60
2019-01-04T20:15:41.323Z,20.70
2019-01-04T20:18:40.459Z,20.70
2019-01-04T20:21:39.798Z,20.70
2019-01-04T20:24:39.141Z,20.80
2019-01-04T20:31:28.079Z,20.80
2019-01-04T20:37:35.875Z,20.80
2019-01-04T20:40:35.289Z,20.80
2019-01-04T20:47:00.422Z,20.70
2019-01-04T20:50:19.981Z,20.60
2019-01-04T20:53:19.399Z,20.60
2019-01-04T20:56:18.714Z,20.50
2019-01-04T20:59:18.163Z,20.50
2019-01-04T21:02:17.462Z,20.40
2019-01-04T21:05:17.050Z,20.40
2019-01-04T21:08:16.367Z,20.40
2019-01-04T21:11:18.786Z,20.40
2019-01-04T21:17:41.332Z,20.30
2019-01-04T21:20:38.593Z,20.20
2019-01-04T21:23:45.313Z,20.20
2019-01-04T21:26:45.249Z,20.20
2019-01-04T21:29:47.416Z,20.20
2019-01-04T21:32:56.794Z,20.10
2019-01-04T21:39:05.417Z,20.10
2019-01-04T21:42:22.693Z,20.10
2019-01-04T21:45:29.195Z,20.10
2019-01-04T21:48:28.640Z,20.10
2019-01-04T21:51:31.515Z,20.10
2019-01-04T21:54:34.179Z,20.00
2019-01-04T21:57:40.578Z,20.10
2019-01-04T22:00:43.426Z,20.00
2019-01-04T22:03:50.253Z,20.00
2019-01-04T22:10:03.032Z,20.00
2019-01-04T22:13:04.930Z,20.00
2019-01-04T22:16:02.217Z,20.00
2019-01-04T22:19:02.070Z,20.00
2019-01-04T22:25:28.770Z,20.00
2019-01-04T22:28:28.166Z,20.00
2019-01-04T22:31:34.253Z,20.00
2019-01-04T22:34:53.818Z,20.00
2019-01-04T22:37:53.151Z,20.00
2019-01-04T22:40:52.394Z,19.90
2019-01-04T22:43:58.132Z,19.90
2019-01-04T22:47:02.409Z,19.90
2019-01-04T22:50:01.882Z,19.90
2019-01-04T22:53:01.926Z,19.80
2019-01-04T22:56:01.340Z,19.80
2019-01-04T23:02:24.397Z,19.70
2019-01-04T23:05:23.875Z,19.70
2019-01-04T23:08:23.273Z,19.70
2019-01-04T23:11:22.489Z,19.70
2019-01-04T23:14:22.022Z,19.60
2019-01-04T23:17:16.621Z,19.60
2019-01-04T23:20:16.388Z,19.50
2019-01-04T23:26:40.841Z,19.50
2019-01-04T23:32:55.104Z,19.40
2019-01-04T23:36:01.653Z,19.40
2019-01-04T23:39:00.823Z,19.30
2019-01-04T23:45:15.510Z,19.30
2019-01-04T23:48:15.040Z,19.30
2019-01-04T23:51:08.381Z,19.30
2019-01-04T23:54:27.605Z,19.20
2019-01-04T23:57:27.000Z,19.20
